Time;durP1;ratioP1;P1;durP2;ratioP2;P2;SDS_P1;SDS_P2;PMS_P1;PMS_P2;Temp;Humidity;BMP_temperature;BMP_pressure;BME280_temperature;BME280_humidity;BME280_pressure;Samples;Min_cycle;Max_cycle;Signal;HPM_P1;HPM_P2
2024/02/03 00:00:36;;;;;;;24.60;15.67;;;;;;;8.48;100.00;101432.38;4990744;28;20211;-82
2024/02/03 00:03:03;;;;;;;22.37;14.97;;;;;;;8.49;100.00;101433.25;4991294;28;20723;-81
2024/02/03 00:05:30;;;;;;;26.93;17.57;;;;;;;8.49;100.00;101435.91;4983974;28;20660;-83
2024/02/03 00:07:56;;;;;;;25.57;17.13;;;;;;;8.50;100.00;101421.69;4991154;28;20670;-83
2024/02/03 00:10:23;;;;;;;22.90;16.20;;;;;;;8.51;100.00;101436.69;4991236;28;20716;-84
2024/02/03 00:12:50;;;;;;;29.27;16.30;;;;;;;8.52;100.00;101428.69;4993750;28;20209;-82
2024/02/03 00:15:17;;;;;;;22.97;15.23;;;;;;;8.55;100.00;101425.91;4993970;28;20214;-84
2024/02/03 00:17:45;;;;;;;26.43;17.00;;;;;;;8.58;100.00;101425.78;4991446;28;20204;-81
2024/02/03 00:20:13;;;;;;;27.13;17.50;;;;;;;8.59;100.00;101429.28;4991255;28;20274;-82
2024/02/03 00:22:40;;;;;;;27.10;17.23;;;;;;;8.63;100.00;101433.50;4991039;28;20591;-82
2024/02/03 00:25:08;;;;;;;26.27;16.87;;;;;;;8.63;100.00;101428.22;4994227;28;20217;-84
2024/02/03 00:27:34;;;;;;;23.43;15.87;;;;;;;8.63;100.00;101434.38;4991011;28;20645;-83
2024/02/03 00:30:01;;;;;;;29.93;17.67;;;;;;;8.64;100.00;101425.47;4992169;28;20561;-82
2024/02/03 00:32:28;;;;;;;27.27;18.00;;;;;;;8.64;100.00;101416.66;4991711;28;20243;-84
2024/02/03 00:34:56;;;;;;;26.90;16.80;;;;;;;8.64;100.00;101425.47;4991576;28;20207;-82
2024/02/03 00:37:23;;;;;;;27.00;17.97;;;;;;;8.64;100.00;101417.53;4994958;28;20563;-82
2024/02/03 00:39:49;;;;;;;29.53;17.70;;;;;;;8.64;100.00;101419.31;4994165;28;20211;-82
2024/02/03 00:42:16;;;;;;;33.57;17.83;;;;;;;8.66;100.00;101420.09;5002886;28;20207;-82
2024/02/03 00:44:43;;;;;;;29.17;18.73;;;;;;;8.68;100.00;101410.28;4997524;28;20258;-82
2024/02/03 00:47:09;;;;;;;25.37;16.50;;;;;;;8.75;100.00;101408.25;4996010;28;20231;-82
2024/02/03 00:49:36;;;;;;;32.07;18.97;;;;;;;8.72;100.00;101392.44;4995037;28;20266;-82
2024/02/03 00:52:04;;;;;;;23.43;16.17;;;;;;;8.75;100.00;101398.47;4994838;28;20210;-82
2024/02/03 00:54:31;;;;;;;26.93;18.33;;;;;;;8.74;100.00;101396.75;4995037;28;20694;-83
2024/02/03 00:56:57;;;;;;;29.33;17.80;;;;;;;8.76;100.00;101389.59;4994300;28;20253;-81
2024/02/03 00:59:24;;;;;;;25.97;16.70;;;;;;;8.78;100.00;101378.91;4994938;28;20238;-83
2024/02/03 01:01:50;;;;;;;26.03;17.10;;;;;;;8.81;100.00;101389.34;4996453;28;20291;-83
2024/02/03 01:04:16;;;;;;;24.20;17.00;;;;;;;8.79;100.00;101384.13;4993824;28;20322;-81
2024/02/03 01:06:43;;;;;;;28.03;16.60;;;;;;;8.84;100.00;101391.88;4993884;28;20330;-84
2024/02/03 01:09:11;;;;;;;26.30;18.17;;;;;;;8.85;100.00;101389.16;4993704;28;20566;-83
2024/02/03 01:11:38;;;;;;;31.60;18.03;;;;;;;8.85;100.00;101389.16;4997410;28;20236;-84
2024/02/03 01:14:05;;;;;;;27.43;17.90;;;;;;;8.86;100.00;101385.59;5000713;28;20208;-82
2024/02/03 01:16:31;;;;;;;29.43;18.37;;;;;;;8.90;100.00;101383.66;4994479;28;20228;-83
2024/02/03 01:18:58;;;;;;;26.90;17.53;;;;;;;8.90;100.00;101391.63;4995501;28;20204;-83
2024/02/03 01:21:25;;;;;;;28.63;18.70;;;;;;;8.93;100.00;101388.84;4995132;28;20242;-82
2024/02/03 01:23:51;;;;;;;27.73;17.90;;;;;;;8.95;100.00;101389.63;4994578;28;20228;-83
2024/02/03 01:26:19;;;;;;;29.23;18.27;;;;;;;8.93;100.00;101397.66;4986368;28;20227;-84
2024/02/03 01:28:46;;;;;;;31.47;19.10;;;;;;;8.94;100.00;101388.78;4992361;28;20294;-83
2024/02/03 01:31:12;;;;;;;28.93;17.97;;;;;;;8.94;100.00;101382.59;5001220;28;20238;-82
2024/02/03 01:33:39;;;;;;;30.57;18.33;;;;;;;8.95;100.00;101382.53;4993692;28;20204;-81
2024/02/03 01:36:07;;;;;;;28.57;17.83;;;;;;;8.96;100.00;101378.91;4993509;28;20227;-82
2024/02/03 01:38:34;;;;;;;34.33;18.77;;;;;;;8.96;100.00;101370.06;4991673;28;20231;-78
2024/02/03 01:41:00;;;;;;;27.40;17.77;;;;;;;8.98;100.00;101374.41;4987389;28;20216;-78
2024/02/03 01:43:28;;;;;;;28.77;18.07;;;;;;;8.98;100.00;101382.38;4996290;28;20223;-78
2024/02/03 01:45:55;;;;;;;27.60;18.70;;;;;;;8.97;100.00;101380.63;4993342;28;20235;-79
2024/02/03 01:48:22;;;;;;;28.37;17.87;;;;;;;8.99;100.00;101378.78;4992860;28;20294;-78
2024/02/03 01:50:50;;;;;;;30.07;19.43;;;;;;;8.99;100.00;101375.25;4993642;28;20290;-79
2024/02/03 01:53:18;;;;;;;28.67;18.47;;;;;;;8.99;100.00;101376.13;4993359;28;20213;-78
2024/02/03 01:55:45;;;;;;;29.40;19.07;;;;;;;8.94;100.00;101375.50;4994966;28;20227;-79
2024/02/03 01:58:12;;;;;;;29.07;18.17;;;;;;;9.00;100.00;101376.97;4995408;28;20214;-78
2024/02/03 02:00:40;;;;;;;32.90;20.00;;;;;;;8.99;100.00;101369.94;4997765;28;20214;-78
2024/02/03 02:03:07;;;;;;;28.83;19.43;;;;;;;8.94;100.00;101372.84;4994476;28;20226;-79
2024/02/03 02:05:33;;;;;;;25.93;17.90;;;;;;;8.99;100.00;101375.25;4991787;28;20228;-79
2024/02/03 02:08:00;;;;;;;29.87;19.00;;;;;;;8.99;100.00;101362.84;4994870;28;20669;-79
2024/02/03 02:10:30;;;;;;;30.20;19.43;;;;;;;9.00;100.00;101356.59;4995810;28;20218;-79
2024/02/03 02:12:56;;;;;;;29.10;18.53;;;;;;;8.99;100.00;101352.22;4989867;28;20208;-79
2024/02/03 02:15:26;;;;;;;31.53;20.10;;;;;;;9.00;100.00;101359.25;4994686;28;20282;-79
2024/02/03 02:17:59;;;;;;;33.07;20.33;;;;;;;8.99;100.00;101362.84;4995293;28;20209;-78
2024/02/03 02:20:27;;;;;;;30.80;19.77;;;;;;;8.98;100.00;101361.09;4991738;28;20235;-79
2024/02/03 02:22:54;;;;;;;31.27;18.83;;;;;;;8.98;100.00;101352.28;4994835;28;20246;-79
2024/02/03 02:25:21;;;;;;;29.10;19.37;;;;;;;8.97;100.00;101364.69;4991886;28;20318;-79
2024/02/03 02:27:47;;;;;;;34.33;19.80;;;;;;;8.96;100.00;101356.78;4995424;28;20209;-79
2024/02/03 02:30:14;;;;;;;32.77;19.17;;;;;;;8.96;100.00;101354.13;4990031;28;20600;-79
2024/02/03 02:32:41;;;;;;;27.27;17.63;;;;;;;9.00;100.00;101364.56;4995415;28;20206;-79
2024/02/03 02:35:08;;;;;;;34.70;20.23;;;;;;;9.00;100.00;101358.38;4992531;28;20203;-79
2024/02/03 02:37:36;;;;;;;30.97;19.20;;;;;;;9.02;100.00;101362.69;4996229;28;20235;-79
2024/02/03 02:40:04;;;;;;;27.97;18.73;;;;;;;9.04;100.00;101358.19;4994970;28;20211;-79
2024/02/03 02:42:31;;;;;;;28.70;18.60;;;;;;;9.04;100.00;101360.84;4996312;28;20207;-78
2024/02/03 02:44:57;;;;;;;33.10;19.23;;;;;;;9.04;100.00;101349.34;4999112;28;20313;-79
2024/02/03 02:47:24;;;;;;;28.77;18.73;;;;;;;9.04;100.00;101347.56;4990123;28;20226;-79
2024/02/03 02:49:50;;;;;;;27.13;18.73;;;;;;;9.06;100.00;101350.16;4997228;28;20214;-79
2024/02/03 02:52:17;;;;;;;32.63;19.13;;;;;;;9.09;100.00;101341.19;4998985;28;20214;-78
2024/02/03 02:54:45;;;;;;;30.67;19.73;;;;;;;9.07;100.00;101341.25;4999144;28;20668;-78
2024/02/03 02:57:11;;;;;;;30.03;19.70;;;;;;;9.10;100.00;101345.56;4992354;28;20231;-79
2024/02/03 02:59:38;;;;;;;31.93;21.70;;;;;;;9.06;100.00;101360.78;4995632;28;20199;-78
2024/02/03 03:02:05;;;;;;;33.93;19.90;;;;;;;9.05;100.00;101364.38;4997489;28;20665;-78
2024/02/03 03:04:31;;;;;;;33.50;20.93;;;;;;;9.01;100.00;101358.31;4995941;28;20224;-78
2024/02/03 03:06:58;;;;;;;35.20;21.27;;;;;;;8.99;100.00;101352.22;4992869;28;20223;-79
2024/02/03 03:09:25;;;;;;;34.80;20.20;;;;;;;8.98;100.00;101352.28;4996776;28;20598;-79
2024/02/03 03:12:00;;;;;;;33.00;20.17;;;;;;;9.00;100.00;101345.09;4991173;28;20211;-79
2024/02/03 03:14:26;;;;;;;33.87;19.70;;;;;;;8.98;100.00;101344.31;4993984;28;20262;-79
2024/02/03 03:16:53;;;;;;;33.07;19.00;;;;;;;8.96;100.00;101347.03;4994156;28;20598;-78
2024/02/03 03:19:19;;;;;;;30.13;18.47;;;;;;;8.95;100.00;101340.03;4994009;28;20210;-78
2024/02/03 03:21:46;;;;;;;30.67;19.63;;;;;;;8.95;100.00;101352.44;4989693;28;20204;-78
2024/02/03 03:24:13;;;;;;;30.57;18.57;;;;;;;8.94;100.00;101351.56;4992537;28;20583;-78
2024/02/03 03:26:43;;;;;;;29.27;16.43;;;;;;;8.95;100.00;101345.34;4988986;28;20261;-79
2024/02/03 03:29:11;;;;;;;27.63;17.27;;;;;;;8.93;100.00;101346.34;4993785;28;20207;-79
2024/02/03 03:31:38;;;;;;;25.17;16.30;;;;;;;8.91;100.00;101338.44;4997979;28;20914;-79
2024/02/03 03:34:04;;;;;;;26.33;17.07;;;;;;;8.89;100.00;101348.25;4997268;28;20221;-78
2024/02/03 03:36:31;;;;;;;22.13;13.90;;;;;;;8.93;100.00;101347.19;4994926;28;20219;-79
2024/02/03 03:38:57;;;;;;;21.63;14.30;;;;;;;8.89;100.00;101350.06;4996301;28;20203;-78
2024/02/03 03:41:24;;;;;;;22.47;14.23;;;;;;;8.91;100.00;101349.06;4996221;28;20215;-79
2024/02/03 03:43:50;;;;;;;22.30;15.03;;;;;;;8.89;100.00;101344.75;4998339;28;20730;-79
2024/02/03 03:46:18;;;;;;;21.77;13.90;;;;;;;8.88;100.00;101340.34;4988998;28;20223;-79
2024/02/03 03:48:44;;;;;;;19.80;13.77;;;;;;;8.84;100.00;101339.63;4995278;28;20211;-79
2024/02/03 03:51:11;;;;;;;19.27;12.60;;;;;;;8.85;100.00;101346.66;4998148;28;20211;-79
2024/02/03 03:53:37;;;;;;;20.37;13.70;;;;;;;8.81;100.00;101344.22;4997506;28;20209;-79
2024/02/03 03:56:06;;;;;;;21.30;13.10;;;;;;;8.79;100.00;101343.41;4997290;28;20244;-79
2024/02/03 03:58:32;;;;;;;19.93;13.03;;;;;;;8.77;100.00;101343.50;4996822;28;20684;-79
2024/02/03 04:00:59;;;;;;;19.93;12.67;;;;;;;8.76;100.00;101339.13;4995827;28;20579;-79
2024/02/03 04:03:27;;;;;;;21.90;13.17;;;;;;;8.76;100.00;101344.44;4994600;28;20208;-80
2024/02/03 04:05:53;;;;;;;18.63;12.27;;;;;;;8.76;100.00;101351.53;4996055;28;20227;-81
2024/02/03 04:08:20;;;;;;;19.30;14.10;;;;;;;8.74;100.00;101356.06;4995681;28;20262;-80
2024/02/03 04:10:46;;;;;;;16.60;11.63;;;;;;;8.78;100.00;101352.34;5001422;28;20202;-80
2024/02/03 04:13:13;;;;;;;16.40;11.63;;;;;;;8.78;100.00;101350.50;4998297;28;20207;-80
2024/02/03 04:15:39;;;;;;;17.93;10.70;;;;;;;8.79;100.00;101351.38;4995115;28;20589;-80
2024/02/03 04:18:06;;;;;;;16.33;10.70;;;;;;;8.80;100.00;101347.78;4996572;28;20801;-80
2024/02/03 04:20:34;;;;;;;15.30;10.60;;;;;;;8.80;100.00;101332.72;4997297;28;20633;-80
2024/02/03 04:23:01;;;;;;;13.53;9.57;;;;;;;8.79;100.00;101344.28;4994874;28;20211;-80
2024/02/03 04:25:27;;;;;;;13.13;8.53;;;;;;;8.79;100.00;101343.41;4997699;28;20235;-80
2024/02/03 04:27:54;;;;;;;12.20;9.60;;;;;;;8.79;100.00;101333.66;4993899;28;20210;-80
2024/02/03 04:30:20;;;;;;;12.57;8.57;;;;;;;8.79;100.00;101336.31;4998491;28;20211;-80
2024/02/03 04:32:47;;;;;;;13.23;8.77;;;;;;;8.84;100.00;101344.06;5002724;28;20218;-80
2024/02/03 04:35:13;;;;;;;11.47;8.30;;;;;;;8.82;100.00;101344.13;5001346;28;20239;-80
2024/02/03 04:37:43;;;;;;;11.50;8.27;;;;;;;8.84;100.00;101338.75;5000579;28;20199;-80
2024/02/03 04:40:10;;;;;;;9.37;7.17;;;;;;;8.85;100.00;101332.53;5000648;28;20306;-80
2024/02/03 04:42:37;;;;;;;9.30;7.43;;;;;;;8.87;100.00;101334.19;4999251;28;20587;-80
2024/02/03 04:45:04;;;;;;;13.50;8.27;;;;;;;8.82;100.00;101336.19;5001590;28;20234;-81
2024/02/03 04:47:31;;;;;;;10.23;7.47;;;;;;;8.81;100.00;101337.09;4992156;28;20235;-81
2024/02/03 04:49:57;;;;;;;11.07;7.63;;;;;;;8.83;100.00;101340.56;5003752;28;20570;-81
2024/02/03 04:52:23;;;;;;;10.03;7.53;;;;;;;8.83;100.00;101332.59;5002343;28;20215;-81
2024/02/03 04:54:51;;;;;;;12.17;7.87;;;;;;;8.83;100.00;101353.84;5002821;28;20199;-81
2024/02/03 04:57:17;;;;;;;11.17;7.60;;;;;;;8.84;100.00;101355.56;4993960;28;20223;-81
2024/02/03 04:59:44;;;;;;;11.77;7.40;;;;;;;8.83;100.00;101352.97;5004248;28;20211;-81
2024/02/03 05:02:10;;;;;;;10.03;7.40;;;;;;;8.83;100.00;101348.53;5000998;28;20211;-80
2024/02/03 05:04:37;;;;;;;12.10;8.00;;;;;;;8.79;100.00;101335.44;4998967;28;20246;-81
2024/02/03 05:07:03;;;;;;;11.50;8.30;;;;;;;8.80;100.00;101337.16;4998443;28;20219;-80
2024/02/03 05:09:30;;;;;;;12.17;8.03;;;;;;;8.83;100.00;101337.91;4995651;28;20216;-81
2024/02/03 05:11:58;;;;;;;10.40;7.53;;;;;;;8.83;100.00;101329.94;5000020;28;20219;-80
2024/02/03 05:14:25;;;;;;;10.53;7.03;;;;;;;8.83;100.00;101335.25;5002038;28;20227;-81
2024/02/03 05:16:50;;;;;;;9.90;7.17;;;;;;;8.81;100.00;101339.75;4997989;28;20231;-80
2024/02/03 05:19:17;;;;;;;12.03;6.97;;;;;;;8.79;100.00;101341.63;4999839;28;20267;-80
2024/02/03 05:21:45;;;;;;;11.10;7.40;;;;;;;8.80;100.00;101339.81;4997829;28;20208;-80
2024/02/03 05:24:11;;;;;;;9.67;6.93;;;;;;;8.79;100.00;101336.31;4999571;28;20227;-80
2024/02/03 05:26:38;;;;;;;10.10;6.93;;;;;;;8.80;100.00;101340.69;4994792;28;20231;-81
2024/02/03 05:29:06;;;;;;;8.93;6.77;;;;;;;8.81;100.00;101341.56;4997980;28;20210;-80
2024/02/03 05:31:32;;;;;;;10.40;6.90;;;;;;;8.79;100.00;101323.03;4997839;28;20206;-81
2024/02/03 05:33:59;;;;;;;8.73;6.90;;;;;;;8.80;100.00;101327.41;5004453;28;20265;-81
2024/02/03 05:36:25;;;;;;;9.73;6.97;;;;;;;8.79;100.00;101309.75;5000432;28;20598;-80
2024/02/03 05:38:51;;;;;;;9.93;6.80;;;;;;;8.79;100.00;101312.41;5001366;28;20234;-80
2024/02/03 05:41:18;;;;;;;9.13;6.60;;;;;;;8.80;100.00;101305.28;5000588;28;20857;-81
2024/02/03 05:43:44;;;;;;;10.17;6.70;;;;;;;8.82;100.00;101298.13;5002961;28;20200;-81
2024/02/03 05:46:12;;;;;;;9.43;7.00;;;;;;;8.79;100.00;101299.13;5002127;28;20239;-81
2024/02/03 05:48:39;;;;;;;9.17;6.07;;;;;;;8.78;100.00;101297.41;5003399;28;20652;-81
2024/02/03 05:51:05;;;;;;;8.27;6.23;;;;;;;8.78;100.00;101292.09;5001040;28;20584;-81
2024/02/03 05:53:35;;;;;;;7.10;5.23;;;;;;;8.79;100.00;101292.94;5006636;28;20214;-81
2024/02/03 05:56:02;;;;;;;7.70;5.20;;;;;;;8.78;100.00;101294.75;5007369;28;20225;-79
2024/02/03 05:58:28;;;;;;;7.43;5.40;;;;;;;8.80;100.00;101289.34;5001171;28;20673;-81
2024/02/03 06:00:55;;;;;;;6.73;5.13;;;;;;;8.77;100.00;101290.38;5006956;28;20207;-79
2024/02/03 06:03:23;;;;;;;7.53;5.40;;;;;;;8.77;100.00;101300.16;5006076;28;20204;-79
2024/02/03 06:05:50;;;;;;;7.13;5.33;;;;;;;8.76;100.00;101288.66;5007303;28;20680;-79
2024/02/03 06:08:16;;;;;;;7.57;4.77;;;;;;;8.78;100.00;101289.44;5002144;28;20234;-78
2024/02/03 06:10:42;;;;;;;6.17;4.53;;;;;;;8.80;100.00;101290.22;5002254;28;20203;-81
2024/02/03 06:13:09;;;;;;;5.77;4.33;;;;;;;8.84;100.00;101290.94;5000588;28;20215;-80
2024/02/03 06:15:35;;;;;;;9.13;4.03;;;;;;;8.84;100.00;101282.97;4996194;28;20223;-80
2024/02/03 06:18:02;;;;;;;6.43;4.40;;;;;;;8.85;100.00;101282.91;5003182;28;20205;-80
2024/02/03 06:20:30;;;;;;;5.07;4.07;;;;;;;8.85;100.00;101280.25;4994177;28;20576;-80
2024/02/03 06:22:56;;;;;;;5.87;3.40;;;;;;;8.85;100.00;101284.72;4995945;28;20203;-80
2024/02/03 06:25:23;;;;;;;6.17;4.20;;;;;;;8.85;100.00;101282.06;4996862;28;20286;-80
2024/02/03 06:27:49;;;;;;;5.60;4.30;;;;;;;8.85;100.00;101288.22;5003235;28;20208;-80
2024/02/03 06:30:16;;;;;;;5.40;4.27;;;;;;;8.83;100.00;101290.09;4995231;28;20208;-80
2024/02/03 06:32:42;;;;;;;6.13;3.80;;;;;;;8.86;100.00;101279.31;5002689;28;20578;-79
2024/02/03 06:35:09;;;;;;;6.13;3.30;;;;;;;8.86;100.00;101276.66;4992843;28;20692;-79
2024/02/03 06:37:37;;;;;;;4.60;3.23;;;;;;;8.86;100.00;101282.00;4998235;28;20207;-80
2024/02/03 06:40:04;;;;;;;4.43;3.20;;;;;;;8.87;100.00;101291.69;5003061;28;20213;-80
2024/02/03 06:42:30;;;;;;;5.30;3.53;;;;;;;8.88;100.00;101287.22;4997007;28;20204;-80
2024/02/03 06:44:58;;;;;;;4.53;3.50;;;;;;;8.90;100.00;101294.19;4995415;28;20322;-80
2024/02/03 06:47:24;;;;;;;4.77;3.33;;;;;;;8.91;100.00;101290.63;5000578;28;20628;-80
2024/02/03 06:49:51;;;;;;;4.53;3.50;;;;;;;8.91;100.00;101303.03;4994506;28;20574;-80
2024/02/03 06:52:17;;;;;;;4.90;2.97;;;;;;;8.93;100.00;101302.03;5000433;28;20218;-80
2024/02/03 06:54:45;;;;;;;4.57;3.17;;;;;;;8.94;100.00;101314.38;4996251;28;20211;-79
2024/02/03 06:57:11;;;;;;;4.10;2.97;;;;;;;8.95;100.00;101309.94;4992085;28;20232;-80
2024/02/03 06:59:38;;;;;;;4.50;3.47;;;;;;;8.95;100.00;101312.59;5000083;28;20203;-80
2024/02/03 07:02:04;;;;;;;3.97;2.70;;;;;;;8.94;100.00;101306.41;4996098;28;20214;-80
2024/02/03 07:04:31;;;;;;;4.37;3.10;;;;;;;8.91;100.00;101303.91;4998907;28;20218;-80
2024/02/03 07:06:58;;;;;;;3.50;2.77;;;;;;;8.92;100.00;101305.63;4995139;28;20265;-80
2024/02/03 07:09:24;;;;;;;4.43;3.27;;;;;;;8.91;100.00;101311.88;4997348;28;20207;-80
2024/02/03 07:11:52;;;;;;;5.07;3.53;;;;;;;8.92;100.00;101308.28;4994423;28;20204;-80
2024/02/03 07:14:18;;;;;;;5.47;3.30;;;;;;;8.94;100.00;101308.22;5000015;28;20204;-80
2024/02/03 07:16:45;;;;;;;4.30;2.87;;;;;;;8.96;100.00;101312.50;4991840;28;20223;-80
2024/02/03 07:19:11;;;;;;;4.07;3.23;;;;;;;8.97;100.00;101313.34;4999412;28;20210;-79
2024/02/03 07:21:38;;;;;;;4.67;3.17;;;;;;;8.98;100.00;101310.63;4993852;28;20215;-79
2024/02/03 07:24:04;;;;;;;4.63;3.27;;;;;;;8.99;100.00;101308.84;4998219;28;20199;-80
2024/02/03 07:26:31;;;;;;;4.37;3.40;;;;;;;8.99;100.00;101317.66;4993501;28;20239;-80
2024/02/03 07:28:59;;;;;;;3.90;3.00;;;;;;;8.99;100.00;101307.03;4999226;28;20217;-80
2024/02/03 07:31:26;;;;;;;4.53;2.93;;;;;;;8.99;100.00;101308.84;4996882;28;20203;-79
2024/02/03 07:33:53;;;;;;;4.67;3.47;;;;;;;9.02;100.00;101319.31;4995860;28;20207;-79
2024/02/03 07:36:19;;;;;;;5.27;2.80;;;;;;;9.01;100.00;101315.81;4999688;28;20224;-79
2024/02/03 07:38:46;;;;;;;5.03;3.03;;;;;;;9.00;100.00;101314.09;4989970;28;20229;-79
2024/02/03 07:41:14;;;;;;;3.93;3.20;;;;;;;9.02;100.00;101308.69;4999623;28;20610;-79
2024/02/03 07:43:40;;;;;;;4.10;3.27;;;;;;;9.01;100.00;101305.19;4992693;28;20249;-80
2024/02/03 07:46:08;;;;;;;4.33;2.90;;;;;;;9.01;100.00;101299.88;4999645;28;20241;-80
2024/02/03 07:48:35;;;;;;;4.27;3.30;;;;;;;9.01;100.00;101306.97;4988098;28;20216;-80
2024/02/03 07:51:01;;;;;;;4.20;3.17;;;;;;;9.03;100.00;101313.94;4998078;28;20200;-80
2024/02/03 07:53:27;;;;;;;4.20;3.00;;;;;;;9.03;100.00;101318.41;5002846;28;20725;-80
2024/02/03 07:55:54;;;;;;;5.63;3.20;;;;;;;9.04;100.00;101315.66;4999720;28;20219;-80
2024/02/03 07:58:21;;;;;;;4.30;3.20;;;;;;;9.04;100.00;101320.13;4998258;28;20212;-80
2024/02/03 08:00:47;;;;;;;5.23;4.07;;;;;;;9.07;100.00;101322.66;4991507;28;20206;-80
2024/02/03 08:03:15;;;;;;;4.43;3.83;;;;;;;9.08;100.00;101316.41;4994466;28;20214;-80
2024/02/03 08:05:41;;;;;;;5.07;3.50;;;;;;;9.10;100.00;101313.66;5002217;28;20247;-80
2024/02/03 08:08:08;;;;;;;4.50;3.47;;;;;;;9.08;100.00;101311.09;4998020;28;20234;-80
2024/02/03 08:10:39;;;;;;;4.30;3.30;;;;;;;9.08;100.00;101311.09;4989151;28;20214;-80
2024/02/03 08:13:05;;;;;;;4.43;4.00;;;;;;;9.08;100.00;101307.56;4995142;28;20668;-80
2024/02/03 08:15:32;;;;;;;5.07;3.50;;;;;;;9.11;100.00;101310.09;4998984;28;21094;-80
2024/02/03 08:17:58;;;;;;;4.30;3.67;;;;;;;9.11;100.00;101310.09;4988556;28;20211;-80
2024/02/03 08:20:26;;;;;;;3.73;3.03;;;;;;;9.13;100.00;101319.72;4986262;28;20207;-80
2024/02/03 08:22:53;;;;;;;3.47;2.63;;;;;;;9.13;100.00;101319.72;4991599;28;20766;-80
2024/02/03 08:25:20;;;;;;;4.30;3.33;;;;;;;9.13;100.00;101322.38;4992616;28;20333;-80
2024/02/03 08:27:46;;;;;;;3.70;2.90;;;;;;;9.15;100.00;101322.25;4991793;28;20299;-80
2024/02/03 08:30:13;;;;;;;3.73;2.97;;;;;;;9.17;100.00;101323.06;4987496;28;20215;-81
2024/02/03 08:32:40;;;;;;;3.70;2.93;;;;;;;9.19;100.00;101323.84;4992472;28;20288;-80
2024/02/03 08:35:07;;;;;;;3.90;3.33;;;;;;;9.19;100.00;101318.53;4998476;28;20210;-81
2024/02/03 08:37:35;;;;;;;3.47;2.67;;;;;;;9.18;100.00;101314.16;4990908;28;20708;-81
2024/02/03 08:40:01;;;;;;;3.27;2.77;;;;;;;9.21;100.00;101322.00;4994938;28;20774;-81
2024/02/03 08:42:28;;;;;;;3.20;2.63;;;;;;;9.23;100.00;101325.44;4990090;28;20258;-80
2024/02/03 08:44:54;;;;;;;3.80;2.33;;;;;;;9.24;100.00;101328.03;4995588;28;20200;-80
2024/02/03 08:47:20;;;;;;;3.50;2.43;;;;;;;9.27;100.00;101329.69;4992606;28;20242;-81
2024/02/03 08:49:51;;;;;;;3.60;2.30;;;;;;;9.25;100.00;101319.13;4993549;28;20213;-80
2024/02/03 08:52:18;;;;;;;3.23;2.60;;;;;;;9.26;100.00;101330.63;4989606;28;20204;-80
2024/02/03 08:54:45;;;;;;;3.20;2.20;;;;;;;9.27;100.00;101324.38;4994049;28;20593;-80
2024/02/03 08:57:12;;;;;;;1.67;1.47;;;;;;;9.27;100.00;101325.22;4998420;28;20215;-80
2024/02/03 08:59:39;;;;;;;2.03;1.50;;;;;;;9.29;100.00;101330.47;5000220;28;20211;-81
2024/02/03 09:02:05;;;;;;;1.90;1.50;;;;;;;9.30;100.00;101329.56;4994826;28;20207;-80
2024/02/03 09:04:31;;;;;;;2.30;1.70;;;;;;;9.29;100.00;101336.66;5004145;28;20208;-81
2024/02/03 09:06:58;;;;;;;2.30;1.60;;;;;;;9.30;100.00;101329.56;5004131;28;20495;-81
2024/02/03 09:09:25;;;;;;;2.00;1.60;;;;;;;9.31;100.00;101332.13;5004789;28;20208;-81
2024/02/03 09:11:53;;;;;;;2.33;1.83;;;;;;;9.35;100.00;101335.47;4998901;28;20218;-80
2024/02/03 09:14:19;;;;;;;2.20;1.73;;;;;;;9.34;100.00;101341.72;4999697;28;20214;-80
2024/02/03 09:16:46;;;;;;;1.73;1.53;;;;;;;9.36;100.00;101338.06;4992816;28;20243;-81
2024/02/03 09:19:12;;;;;;;2.00;1.60;;;;;;;9.39;100.00;101342.38;4994131;28;20214;-81
2024/02/03 09:21:38;;;;;;;2.37;1.87;;;;;;;9.36;100.00;101342.53;4990704;28;20945;-80
2024/02/03 09:24:05;;;;;;;2.83;1.97;;;;;;;9.39;100.00;101350.38;4993772;28;20302;-81
2024/02/03 09:26:32;;;;;;;3.93;1.80;;;;;;;9.39;100.00;101350.38;4992556;28;20716;-80
2024/02/03 09:28:59;;;;;;;3.07;2.13;;;;;;;9.39;100.00;101353.03;4989111;28;20212;-80
2024/02/03 09:31:26;;;;;;;3.27;2.57;;;;;;;9.40;100.00;101346.78;4994877;28;20204;-80
2024/02/03 09:33:52;;;;;;;3.73;2.20;;;;;;;9.43;100.00;101351.09;4992511;28;20211;-80
2024/02/03 09:36:19;;;;;;;4.70;3.13;;;;;;;9.45;100.00;101346.56;4996166;28;20237;-80
2024/02/03 09:38:45;;;;;;;3.37;2.40;;;;;;;9.44;100.00;101355.47;4992411;28;20223;-80
2024/02/03 09:41:12;;;;;;;4.07;2.67;;;;;;;9.42;100.00;101360.84;4996479;28;20226;-84
2024/02/03 09:43:39;;;;;;;3.80;2.90;;;;;;;9.42;100.00;101352.88;4994501;28;20684;-84
2024/02/03 09:46:07;;;;;;;4.63;3.27;;;;;;;9.42;100.00;101346.69;4994630;28;20285;-84
2024/02/03 09:48:34;;;;;;;3.57;3.20;;;;;;;9.43;100.00;101348.44;4996647;28;20312;-81
2024/02/03 09:51:01;;;;;;;3.67;3.30;;;;;;;9.42;100.00;101362.66;5002629;28;20607;-83
2024/02/03 09:53:28;;;;;;;3.93;3.40;;;;;;;9.43;100.00;101359.94;4993936;28;20215;-83
2024/02/03 09:55:57;;;;;;;5.67;2.83;;;;;;;9.46;100.00;101361.59;4993342;28;20237;-83
2024/02/03 09:58:25;;;;;;;3.73;2.83;;;;;;;9.49;100.00;101364.09;4992910;28;20258;-84
2024/02/03 10:00:52;;;;;;;4.57;3.20;;;;;;;9.49;100.00;101357.00;4998371;28;20602;-84
2024/02/03 10:03:20;;;;;;;3.37;2.47;;;;;;;9.50;100.00;101361.34;4994008;28;20207;-82
2024/02/03 10:05:47;;;;;;;4.60;3.50;;;;;;;9.52;100.00;101367.44;4993707;28;20242;-83
2024/02/03 10:08:13;;;;;;;4.23;3.47;;;;;;;9.53;100.00;101361.19;4992676;28;20207;-85
2024/02/03 10:10:40;;;;;;;4.63;3.57;;;;;;;9.53;100.00;101360.34;4996002;28;20218;-85
2024/02/03 10:13:08;;;;;;;5.53;3.23;;;;;;;9.57;100.00;101359.25;4993984;28;20207;-82
2024/02/03 10:15:35;;;;;;;4.57;3.83;;;;;;;9.58;100.00;101367.16;4996249;28;20231;-83
2024/02/03 10:18:02;;;;;;;3.80;3.23;;;;;;;9.61;100.00;101363.50;4988872;28;20199;-84
2024/02/03 10:20:30;;;;;;;5.53;3.40;;;;;;;9.63;100.00;101359.84;4992549;28;20211;-85
2024/02/03 10:22:57;;;;;;;3.27;2.60;;;;;;;9.65;100.00;101360.63;4986991;28;20207;-85
2024/02/03 10:25:27;;;;;;;4.10;3.13;;;;;;;9.68;100.00;101365.78;4996124;28;20207;-82
2024/02/03 10:28:00;;;;;;;4.27;2.63;;;;;;;9.68;100.00;101363.13;4992939;28;20230;-83
2024/02/03 10:30:29;;;;;;;2.83;2.47;;;;;;;9.71;100.00;101359.44;4996122;28;20230;-84
2024/02/03 10:32:58;;;;;;;3.23;2.53;;;;;;;9.74;100.00;101354.84;4993935;28;20208;-83
2024/02/03 10:35:27;;;;;;;2.30;2.03;;;;;;;9.74;100.00;101361.97;4993322;28;20238;-85
2024/02/03 10:37:55;;;;;;;3.03;2.40;;;;;;;9.76;100.00;101362.75;4988313;28;20210;-84
2024/02/03 10:40:22;;;;;;;3.03;2.40;;;;;;;9.80;100.00;101368.81;4992834;28;20220;-84
2024/02/03 10:42:51;;;;;;;2.23;2.03;;;;;;;9.82;100.00;101372.25;4992751;28;20219;-82
2024/02/03 10:45:19;;;;;;;4.43;2.70;;;;;;;9.84;100.00;101362.41;4999452;28;20278;-85
2024/02/03 10:47:49;;;;;;;2.30;1.87;;;;;;;9.83;100.00;101356.22;4996554;28;20231;-87
2024/02/03 10:50:16;;;;;;;3.17;2.40;;;;;;;9.88;100.00;101355.97;4999184;28;20211;-84
2024/02/03 10:52:46;;;;;;;2.60;2.10;;;;;;;9.90;100.00;101354.09;4995407;28;20488;-82
2024/02/03 10:55:18;;;;;;;2.40;2.10;;;;;;;9.91;100.00;101362.00;4991670;28;20811;-85
2024/02/03 10:57:48;;;;;;;2.50;1.77;;;;;;;9.93;100.00;101369.91;4998540;28;20208;-86
2024/02/03 11:00:16;;;;;;;2.33;1.80;;;;;;;9.91;100.00;101361.16;4999772;28;20216;-85
2024/02/03 11:02:51;;;;;;;3.83;1.93;;;;;;;9.92;100.00;101361.06;4997687;28;20668;-84
2024/02/03 11:05:17;;;;;;;2.40;1.90;;;;;;;9.93;100.00;101361.94;4995280;28;20335;-83
2024/02/03 11:07:45;;;;;;;4.07;2.10;;;;;;;9.94;100.00;101359.19;4995071;28;20867;-82
2024/02/03 11:10:14;;;;;;;3.50;2.20;;;;;;;9.94;100.00;101355.69;4994089;28;20225;-86
2024/02/03 11:12:41;;;;;;;3.07;2.63;;;;;;;9.94;100.00;101361.00;4996627;28;20673;-86
2024/02/03 11:15:10;;;;;;;2.30;2.10;;;;;;;9.95;100.00;101363.59;5000307;28;20583;-86
2024/02/03 11:17:38;;;;;;;2.50;2.30;;;;;;;9.97;100.00;101363.50;5002826;28;20288;-86